sensor_id;sensor_type;location;lat;lon;timestamp;P1;durP1;ratioP1;P2;durP2;ratioP2
36241;SDS011;22283;42.748;12.732;2022-08-19T00:00:09;40.35;;;9.65;;
36241;SDS011;22283;42.748;12.732;2022-08-19T00:05:11;38.55;;;10.18;;
36241;SDS011;22283;42.748;12.732;2022-08-19T00:10:13;44.47;;;11.18;;
36241;SDS011;22283;42.748;12.732;2022-08-19T00:15:17;38.47;;;9.98;;
36241;SDS011;22283;42.748;12.732;2022-08-19T00:20:20;34.90;;;9.00;;
36241;SDS011;22283;42.748;12.732;2022-08-19T00:25:22;31.25;;;8.35;;
36241;SDS011;22283;42.748;12.732;2022-08-19T00:30:23;35.15;;;8.10;;
36241;SDS011;22283;42.748;12.732;2022-08-19T00:35:24;34.75;;;8.32;;
36241;SDS011;22283;42.748;12.732;2022-08-19T00:40:27;40.40;;;7.97;;
36241;SDS011;22283;42.748;12.732;2022-08-19T00:45:28;42.75;;;9.70;;
36241;SDS011;22283;42.748;12.732;2022-08-19T00:50:31;39.95;;;8.80;;
36241;SDS011;22283;42.748;12.732;2022-08-19T00:55:33;43.58;;;9.63;;
36241;SDS011;22283;42.748;12.732;2022-08-19T01:00:34;47.58;;;9.82;;
36241;SDS011;22283;42.748;12.732;2022-08-19T01:05:37;43.38;;;8.73;;
36241;SDS011;22283;42.748;12.732;2022-08-19T01:10:42;36.70;;;8.93;;
36241;SDS011;22283;42.748;12.732;2022-08-19T01:15:47;37.50;;;8.95;;
36241;SDS011;22283;42.748;12.732;2022-08-19T01:20:52;32.97;;;6.72;;
36241;SDS011;22283;42.748;12.732;2022-08-19T01:25:56;26.20;;;6.97;;
36241;SDS011;22283;42.748;12.732;2022-08-19T01:30:57;40.00;;;7.45;;
36241;SDS011;22283;42.748;12.732;2022-08-19T01:36:05;21.40;;;5.57;;
36241;SDS011;22283;42.748;12.732;2022-08-19T01:41:10;18.92;;;5.90;;
36241;SDS011;22283;42.748;12.732;2022-08-19T01:46:11;20.70;;;5.50;;
36241;SDS011;22283;42.748;12.732;2022-08-19T01:51:12;18.48;;;5.45;;
36241;SDS011;22283;42.748;12.732;2022-08-19T01:56:14;14.73;;;5.05;;
36241;SDS011;22283;42.748;12.732;2022-08-19T02:01:15;21.55;;;5.30;;
36241;SDS011;22283;42.748;12.732;2022-08-19T02:06:16;32.28;;;6.82;;
36241;SDS011;22283;42.748;12.732;2022-08-19T02:11:22;23.70;;;5.95;;
36241;SDS011;22283;42.748;12.732;2022-08-19T02:16:26;35.10;;;6.88;;
36241;SDS011;22283;42.748;12.732;2022-08-19T02:21:27;26.98;;;6.47;;
36241;SDS011;22283;42.748;12.732;2022-08-19T02:26:29;19.75;;;6.28;;
36241;SDS011;22283;42.748;12.732;2022-08-19T02:31:30;24.80;;;7.03;;
36241;SDS011;22283;42.748;12.732;2022-08-19T02:36:31;29.20;;;6.82;;
36241;SDS011;22283;42.748;12.732;2022-08-19T02:41:32;33.75;;;7.18;;
36241;SDS011;22283;42.748;12.732;2022-08-19T02:46:34;35.20;;;7.63;;
36241;SDS011;22283;42.748;12.732;2022-08-19T02:51:38;31.48;;;6.53;;
36241;SDS011;22283;42.748;12.732;2022-08-19T02:56:41;38.50;;;7.30;;
36241;SDS011;22283;42.748;12.732;2022-08-19T03:01:43;32.95;;;8.23;;
36241;SDS011;22283;42.748;12.732;2022-08-19T03:06:46;30.95;;;7.45;;
36241;SDS011;22283;42.748;12.732;2022-08-19T03:11:47;32.30;;;7.65;;
36241;SDS011;22283;42.748;12.732;2022-08-19T03:16:49;27.83;;;7.88;;
36241;SDS011;22283;42.748;12.732;2022-08-19T03:21:52;37.88;;;6.93;;
36241;SDS011;22283;42.748;12.732;2022-08-19T03:26:54;25.17;;;6.15;;
36241;SDS011;22283;42.748;12.732;2022-08-19T03:32:00;23.05;;;5.30;;
36241;SDS011;22283;42.748;12.732;2022-08-19T03:37:04;20.13;;;5.50;;
36241;SDS011;22283;42.748;12.732;2022-08-19T03:42:08;18.05;;;5.05;;
36241;SDS011;22283;42.748;12.732;2022-08-19T03:47:10;18.67;;;5.70;;
36241;SDS011;22283;42.748;12.732;2022-08-19T03:52:15;21.38;;;5.70;;
36241;SDS011;22283;42.748;12.732;2022-08-19T03:57:16;19.10;;;5.90;;
36241;SDS011;22283;42.748;12.732;2022-08-19T04:02:17;16.75;;;4.47;;
36241;SDS011;22283;42.748;12.732;2022-08-19T04:07:17;27.70;;;4.68;;
36241;SDS011;22283;42.748;12.732;2022-08-19T04:12:21;19.50;;;5.07;;
36241;SDS011;22283;42.748;12.732;2022-08-19T04:17:22;20.15;;;4.68;;
36241;SDS011;22283;42.748;12.732;2022-08-19T04:22:22;15.10;;;3.70;;
36241;SDS011;22283;42.748;12.732;2022-08-19T04:27:23;24.75;;;5.10;;
36241;SDS011;22283;42.748;12.732;2022-08-19T04:32:24;17.10;;;4.95;;
36241;SDS011;22283;42.748;12.732;2022-08-19T04:37:25;20.83;;;4.18;;
36241;SDS011;22283;42.748;12.732;2022-08-19T04:42:26;22.23;;;4.63;;
36241;SDS011;22283;42.748;12.732;2022-08-19T04:47:40;24.02;;;5.55;;
36241;SDS011;22283;42.748;12.732;2022-08-19T04:52:43;16.95;;;3.17;;
36241;SDS011;22283;42.748;12.732;2022-08-19T04:57:45;13.55;;;3.55;;
36241;SDS011;22283;42.748;12.732;2022-08-19T05:02:46;16.75;;;3.90;;
36241;SDS011;22283;42.748;12.732;2022-08-19T05:07:47;17.48;;;4.07;;
36241;SDS011;22283;42.748;12.732;2022-08-19T05:17:48;16.52;;;3.55;;
36241;SDS011;22283;42.748;12.732;2022-08-19T05:23:07;19.20;;;4.47;;
36241;SDS011;22283;42.748;12.732;2022-08-19T05:28:11;22.08;;;5.38;;
36241;SDS011;22283;42.748;12.732;2022-08-19T05:33:12;18.67;;;4.35;;
36241;SDS011;22283;42.748;12.732;2022-08-19T05:38:12;16.27;;;3.47;;
36241;SDS011;22283;42.748;12.732;2022-08-19T05:43:13;13.80;;;3.20;;
36241;SDS011;22283;42.748;12.732;2022-08-19T05:48:15;16.95;;;3.35;;
36241;SDS011;22283;42.748;12.732;2022-08-19T05:53:17;18.27;;;3.70;;
36241;SDS011;22283;42.748;12.732;2022-08-19T05:58:18;15.50;;;4.53;;
36241;SDS011;22283;42.748;12.732;2022-08-19T06:03:19;12.15;;;4.03;;
36241;SDS011;22283;42.748;12.732;2022-08-19T06:08:20;20.63;;;4.25;;
36241;SDS011;22283;42.748;12.732;2022-08-19T06:13:21;12.85;;;3.97;;
36241;SDS011;22283;42.748;12.732;2022-08-19T06:18:23;18.50;;;3.85;;
36241;SDS011;22283;42.748;12.732;2022-08-19T06:23:24;13.75;;;4.10;;
36241;SDS011;22283;42.748;12.732;2022-08-19T06:28:26;30.15;;;3.95;;
36241;SDS011;22283;42.748;12.732;2022-08-19T06:33:33;19.33;;;4.38;;
36241;SDS011;22283;42.748;12.732;2022-08-19T06:38:34;19.73;;;4.22;;
36241;SDS011;22283;42.748;12.732;2022-08-19T06:43:34;14.18;;;3.83;;
36241;SDS011;22283;42.748;12.732;2022-08-19T06:48:36;19.73;;;4.45;;
36241;SDS011;22283;42.748;12.732;2022-08-19T06:53:37;16.48;;;4.93;;
36241;SDS011;22283;42.748;12.732;2022-08-19T06:58:39;19.05;;;4.03;;
36241;SDS011;22283;42.748;12.732;2022-08-19T07:03:40;16.02;;;3.65;;
36241;SDS011;22283;42.748;12.732;2022-08-19T07:08:42;13.57;;;3.80;;
36241;SDS011;22283;42.748;12.732;2022-08-19T07:13:43;12.52;;;3.38;;
36241;SDS011;22283;42.748;12.732;2022-08-19T07:18:46;19.58;;;4.10;;
36241;SDS011;22283;42.748;12.732;2022-08-19T07:23:48;11.02;;;3.33;;
36241;SDS011;22283;42.748;12.732;2022-08-19T07:28:50;25.90;;;4.60;;
36241;SDS011;22283;42.748;12.732;2022-08-19T07:33:51;16.33;;;3.45;;
36241;SDS011;22283;42.748;12.732;2022-08-19T07:38:55;18.20;;;3.85;;
36241;SDS011;22283;42.748;12.732;2022-08-19T07:43:56;17.40;;;4.03;;
36241;SDS011;22283;42.748;12.732;2022-08-19T07:48:58;14.82;;;3.30;;
36241;SDS011;22283;42.748;12.732;2022-08-19T07:54:00;13.02;;;3.28;;
36241;SDS011;22283;42.748;12.732;2022-08-19T07:59:01;9.07;;;3.30;;
36241;SDS011;22283;42.748;12.732;2022-08-19T08:04:02;16.85;;;3.42;;
36241;SDS011;22283;42.748;12.732;2022-08-19T08:09:26;10.43;;;3.10;;
36241;SDS011;22283;42.748;12.732;2022-08-19T08:14:39;9.70;;;3.15;;
36241;SDS011;22283;42.748;12.732;2022-08-19T08:19:42;10.73;;;3.17;;
36241;SDS011;22283;42.748;12.732;2022-08-19T08:24:44;12.55;;;3.13;;
36241;SDS011;22283;42.748;12.732;2022-08-19T08:29:44;12.18;;;3.40;;
36241;SDS011;22283;42.748;12.732;2022-08-19T08:34:45;13.13;;;3.25;;
36241;SDS011;22283;42.748;12.732;2022-08-19T08:39:46;8.10;;;3.20;;
36241;SDS011;22283;42.748;12.732;2022-08-19T08:50:38;11.50;;;3.53;;
36241;SDS011;22283;42.748;12.732;2022-08-19T08:55:40;7.82;;;2.65;;
36241;SDS011;22283;42.748;12.732;2022-08-19T09:00:46;10.32;;;3.50;;
36241;SDS011;22283;42.748;12.732;2022-08-19T09:05:57;12.80;;;2.97;;
36241;SDS011;22283;42.748;12.732;2022-08-19T09:11:03;10.13;;;3.25;;
36241;SDS011;22283;42.748;12.732;2022-08-19T09:16:18;11.93;;;3.38;;
36241;SDS011;22283;42.748;12.732;2022-08-19T09:21:21;11.13;;;3.20;;
36241;SDS011;22283;42.748;12.732;2022-08-19T09:26:26;8.63;;;3.17;;
36241;SDS011;22283;42.748;12.732;2022-08-19T09:31:28;8.07;;;2.80;;
36241;SDS011;22283;42.748;12.732;2022-08-19T09:36:31;9.95;;;3.45;;
36241;SDS011;22283;42.748;12.732;2022-08-19T09:41:36;9.40;;;3.20;;
36241;SDS011;22283;42.748;12.732;2022-08-19T09:46:37;8.25;;;2.85;;
36241;SDS011;22283;42.748;12.732;2022-08-19T09:51:37;8.43;;;3.13;;
36241;SDS011;22283;42.748;12.732;2022-08-19T09:56:38;14.10;;;4.15;;
36241;SDS011;22283;42.748;12.732;2022-08-19T10:01:39;11.93;;;3.90;;
36241;SDS011;22283;42.748;12.732;2022-08-19T10:06:40;13.18;;;3.50;;
36241;SDS011;22283;42.748;12.732;2022-08-19T10:11:42;10.07;;;2.97;;
36241;SDS011;22283;42.748;12.732;2022-08-19T10:16:49;8.27;;;3.38;;
36241;SDS011;22283;42.748;12.732;2022-08-19T10:21:51;7.72;;;3.17;;
36241;SDS011;22283;42.748;12.732;2022-08-19T10:26:53;15.95;;;3.78;;
36241;SDS011;22283;42.748;12.732;2022-08-19T10:31:54;17.55;;;4.13;;
36241;SDS011;22283;42.748;12.732;2022-08-19T10:36:57;10.75;;;4.00;;
36241;SDS011;22283;42.748;12.732;2022-08-19T10:41:58;7.93;;;3.30;;
36241;SDS011;22283;42.748;12.732;2022-08-19T10:46:59;8.45;;;3.05;;
36241;SDS011;22283;42.748;12.732;2022-08-19T10:52:00;9.50;;;3.13;;
36241;SDS011;22283;42.748;12.732;2022-08-19T10:57:20;7.28;;;3.00;;
36241;SDS011;22283;42.748;12.732;2022-08-19T11:02:24;6.95;;;3.05;;
36241;SDS011;22283;42.748;12.732;2022-08-19T11:07:25;9.27;;;2.83;;
36241;SDS011;22283;42.748;12.732;2022-08-19T11:12:26;6.82;;;2.92;;
36241;SDS011;22283;42.748;12.732;2022-08-19T11:17:27;11.40;;;2.63;;
36241;SDS011;22283;42.748;12.732;2022-08-19T11:22:31;14.88;;;3.00;;
36241;SDS011;22283;42.748;12.732;2022-08-19T11:27:31;6.93;;;2.92;;
36241;SDS011;22283;42.748;12.732;2022-08-19T11:32:32;13.77;;;2.88;;
36241;SDS011;22283;42.748;12.732;2022-08-19T11:37:33;6.97;;;3.00;;
36241;SDS011;22283;42.748;12.732;2022-08-19T11:42:37;14.32;;;2.72;;
36241;SDS011;22283;42.748;12.732;2022-08-19T11:47:56;11.25;;;3.10;;
36241;SDS011;22283;42.748;12.732;2022-08-19T11:52:57;7.80;;;2.38;;
36241;SDS011;22283;42.748;12.732;2022-08-19T11:57:58;6.18;;;2.58;;
36241;SDS011;22283;42.748;12.732;2022-08-19T12:02:59;9.90;;;2.83;;
36241;SDS011;22283;42.748;12.732;2022-08-19T12:08:00;9.20;;;2.25;;
36241;SDS011;22283;42.748;12.732;2022-08-19T12:13:01;9.57;;;2.20;;
36241;SDS011;22283;42.748;12.732;2022-08-19T12:18:02;8.35;;;2.85;;
36241;SDS011;22283;42.748;12.732;2022-08-19T12:23:04;9.45;;;2.70;;
36241;SDS011;22283;42.748;12.732;2022-08-19T12:28:07;7.93;;;2.70;;
36241;SDS011;22283;42.748;12.732;2022-08-19T12:33:07;7.05;;;2.50;;
36241;SDS011;22283;42.748;12.732;2022-08-19T12:38:08;6.72;;;2.85;;
36241;SDS011;22283;42.748;12.732;2022-08-19T12:43:09;6.82;;;2.72;;
36241;SDS011;22283;42.748;12.732;2022-08-19T12:48:11;7.32;;;2.85;;
36241;SDS011;22283;42.748;12.732;2022-08-19T12:53:13;13.98;;;2.80;;
36241;SDS011;22283;42.748;12.732;2022-08-19T12:58:14;7.30;;;2.88;;
36241;SDS011;22283;42.748;12.732;2022-08-19T13:03:15;6.68;;;2.80;;
36241;SDS011;22283;42.748;12.732;2022-08-19T13:08:16;11.10;;;4.05;;
36241;SDS011;22283;42.748;12.732;2022-08-19T13:13:17;9.95;;;3.17;;
36241;SDS011;22283;42.748;12.732;2022-08-19T13:18:18;15.60;;;3.63;;
36241;SDS011;22283;42.748;12.732;2022-08-19T13:23:18;19.70;;;4.50;;
36241;SDS011;22283;42.748;12.732;2022-08-19T13:33:19;12.38;;;3.72;;
36241;SDS011;22283;42.748;12.732;2022-08-19T13:43:22;9.93;;;4.03;;
36241;SDS011;22283;42.748;12.732;2022-08-19T13:48:25;8.13;;;3.63;;
36241;SDS011;22283;42.748;12.732;2022-08-19T13:53:26;8.68;;;3.60;;
36241;SDS011;22283;42.748;12.732;2022-08-19T13:58:27;9.63;;;3.42;;
36241;SDS011;22283;42.748;12.732;2022-08-19T14:03:28;13.35;;;4.25;;
36241;SDS011;22283;42.748;12.732;2022-08-19T14:08:29;12.30;;;4.07;;
36241;SDS011;22283;42.748;12.732;2022-08-19T14:13:32;10.20;;;3.92;;
36241;SDS011;22283;42.748;12.732;2022-08-19T14:18:34;9.60;;;3.00;;
36241;SDS011;22283;42.748;12.732;2022-08-19T14:23:35;7.10;;;3.40;;
36241;SDS011;22283;42.748;12.732;2022-08-19T14:28:36;11.68;;;3.78;;
36241;SDS011;22283;42.748;12.732;2022-08-19T14:33:37;17.00;;;3.88;;
36241;SDS011;22283;42.748;12.732;2022-08-19T14:43:39;9.03;;;2.60;;
36241;SDS011;22283;42.748;12.732;2022-08-19T14:48:41;7.68;;;2.92;;
36241;SDS011;22283;42.748;12.732;2022-08-19T14:53:42;8.25;;;2.70;;
36241;SDS011;22283;42.748;12.732;2022-08-19T14:58:44;6.47;;;2.88;;
36241;SDS011;22283;42.748;12.732;2022-08-19T15:03:45;8.00;;;2.47;;
36241;SDS011;22283;42.748;12.732;2022-08-19T15:08:46;16.77;;;2.80;;
36241;SDS011;22283;42.748;12.732;2022-08-19T15:13:48;8.23;;;2.80;;
36241;SDS011;22283;42.748;12.732;2022-08-19T15:18:51;10.45;;;2.78;;
36241;SDS011;22283;42.748;12.732;2022-08-19T15:23:55;8.95;;;2.55;;
36241;SDS011;22283;42.748;12.732;2022-08-19T15:28:57;6.78;;;2.40;;
36241;SDS011;22283;42.748;12.732;2022-08-19T15:33:59;6.07;;;2.67;;
36241;SDS011;22283;42.748;12.732;2022-08-19T15:44:03;8.10;;;2.72;;
36241;SDS011;22283;42.748;12.732;2022-08-19T15:49:10;9.68;;;2.97;;
36241;SDS011;22283;42.748;12.732;2022-08-19T15:54:14;4.93;;;2.58;;
36241;SDS011;22283;42.748;12.732;2022-08-19T15:59:16;8.40;;;2.15;;
36241;SDS011;22283;42.748;12.732;2022-08-19T16:04:35;13.90;;;2.80;;
36241;SDS011;22283;42.748;12.732;2022-08-19T16:09:55;7.75;;;2.10;;
36241;SDS011;22283;42.748;12.732;2022-08-19T16:19:57;9.70;;;3.67;;
36241;SDS011;22283;42.748;12.732;2022-08-19T16:29:58;5.93;;;2.67;;
36241;SDS011;22283;42.748;12.732;2022-08-19T16:35:02;6.60;;;2.50;;
36241;SDS011;22283;42.748;12.732;2022-08-19T16:40:04;9.35;;;2.80;;
36241;SDS011;22283;42.748;12.732;2022-08-19T16:45:08;5.82;;;2.83;;
36241;SDS011;22283;42.748;12.732;2022-08-19T16:50:09;6.82;;;2.58;;
36241;SDS011;22283;42.748;12.732;2022-08-19T16:55:09;8.82;;;2.42;;
36241;SDS011;22283;42.748;12.732;2022-08-19T17:00:10;6.45;;;2.50;;
36241;SDS011;22283;42.748;12.732;2022-08-19T17:05:13;8.45;;;2.63;;
36241;SDS011;22283;42.748;12.732;2022-08-19T17:10:14;7.28;;;2.28;;
36241;SDS011;22283;42.748;12.732;2022-08-19T17:15:15;6.05;;;3.10;;
36241;SDS011;22283;42.748;12.732;2022-08-19T17:20:16;7.13;;;2.50;;
36241;SDS011;22283;42.748;12.732;2022-08-19T17:25:16;7.82;;;2.78;;
36241;SDS011;22283;42.748;12.732;2022-08-19T17:35:19;14.90;;;3.33;;
36241;SDS011;22283;42.748;12.732;2022-08-19T17:40:20;8.80;;;3.10;;
36241;SDS011;22283;42.748;12.732;2022-08-19T17:45:21;8.80;;;3.42;;
36241;SDS011;22283;42.748;12.732;2022-08-19T17:50:22;6.57;;;2.50;;
36241;SDS011;22283;42.748;12.732;2022-08-19T18:00:24;10.18;;;3.15;;
36241;SDS011;22283;42.748;12.732;2022-08-19T18:05:26;5.90;;;3.22;;
36241;SDS011;22283;42.748;12.732;2022-08-19T18:10:30;7.38;;;3.05;;
36241;SDS011;22283;42.748;12.732;2022-08-19T18:15:31;7.57;;;3.13;;
36241;SDS011;22283;42.748;12.732;2022-08-19T18:25:33;8.70;;;2.55;;
36241;SDS011;22283;42.748;12.732;2022-08-19T18:30:39;9.77;;;3.35;;
36241;SDS011;22283;42.748;12.732;2022-08-19T18:40:44;9.73;;;3.55;;
36241;SDS011;22283;42.748;12.732;2022-08-19T18:46:04;7.40;;;3.05;;
36241;SDS011;22283;42.748;12.732;2022-08-19T18:51:58;11.55;;;3.03;;
36241;SDS011;22283;42.748;12.732;2022-08-19T18:57:02;12.00;;;3.35;;
36241;SDS011;22283;42.748;12.732;2022-08-19T19:02:04;9.80;;;2.83;;
36241;SDS011;22283;42.748;12.732;2022-08-19T19:07:06;10.98;;;2.67;;
36241;SDS011;22283;42.748;12.732;2022-08-19T19:12:11;7.80;;;2.72;;
36241;SDS011;22283;42.748;12.732;2022-08-19T19:17:14;10.20;;;2.63;;
36241;SDS011;22283;42.748;12.732;2022-08-19T19:37:28;8.00;;;2.67;;
36241;SDS011;22283;42.748;12.732;2022-08-19T19:42:29;8.70;;;3.45;;
36241;SDS011;22283;42.748;12.732;2022-08-19T19:47:29;7.65;;;3.53;;
36241;SDS011;22283;42.748;12.732;2022-08-19T19:52:30;5.80;;;3.10;;
36241;SDS011;22283;42.748;12.732;2022-08-19T19:57:31;8.18;;;4.00;;
36241;SDS011;22283;42.748;12.732;2022-08-19T20:02:31;7.05;;;3.60;;
36241;SDS011;22283;42.748;12.732;2022-08-19T20:07:32;19.23;;;4.65;;
36241;SDS011;22283;42.748;12.732;2022-08-19T20:12:51;13.50;;;3.13;;
36241;SDS011;22283;42.748;12.732;2022-08-19T20:17:53;6.25;;;4.00;;
36241;SDS011;22283;42.748;12.732;2022-08-19T20:22:54;5.82;;;3.70;;
36241;SDS011;22283;42.748;12.732;2022-08-19T20:27:55;9.63;;;2.85;;
36241;SDS011;22283;42.748;12.732;2022-08-19T20:32:55;7.55;;;2.60;;
36241;SDS011;22283;42.748;12.732;2022-08-19T20:37:57;19.33;;;3.58;;
36241;SDS011;22283;42.748;12.732;2022-08-19T20:42:58;7.68;;;2.90;;
36241;SDS011;22283;42.748;12.732;2022-08-19T20:48:03;5.88;;;3.28;;
36241;SDS011;22283;42.748;12.732;2022-08-19T20:53:12;8.75;;;3.58;;
36241;SDS011;22283;42.748;12.732;2022-08-19T20:58:16;6.53;;;2.65;;
36241;SDS011;22283;42.748;12.732;2022-08-19T21:03:19;7.93;;;3.03;;
36241;SDS011;22283;42.748;12.732;2022-08-19T21:08:22;6.18;;;2.60;;
36241;SDS011;22283;42.748;12.732;2022-08-19T21:13:23;8.90;;;3.42;;
36241;SDS011;22283;42.748;12.732;2022-08-19T21:23:28;12.20;;;3.40;;
36241;SDS011;22283;42.748;12.732;2022-08-19T21:28:29;26.20;;;4.25;;
36241;SDS011;22283;42.748;12.732;2022-08-19T21:33:30;8.63;;;3.00;;
36241;SDS011;22283;42.748;12.732;2022-08-19T21:38:33;5.95;;;2.60;;
36241;SDS011;22283;42.748;12.732;2022-08-19T21:43:34;10.90;;;2.88;;
36241;SDS011;22283;42.748;12.732;2022-08-19T21:48:36;10.95;;;2.75;;
36241;SDS011;22283;42.748;12.732;2022-08-19T21:53:37;8.38;;;3.53;;
36241;SDS011;22283;42.748;12.732;2022-08-19T21:58:37;12.75;;;3.15;;
36241;SDS011;22283;42.748;12.732;2022-08-19T22:03:38;7.68;;;2.78;;
36241;SDS011;22283;42.748;12.732;2022-08-19T22:08:39;18.63;;;3.67;;
36241;SDS011;22283;42.748;12.732;2022-08-19T22:13:41;9.07;;;3.00;;
36241;SDS011;22283;42.748;12.732;2022-08-19T22:18:41;11.77;;;3.40;;
36241;SDS011;22283;42.748;12.732;2022-08-19T22:23:43;8.98;;;2.63;;
36241;SDS011;22283;42.748;12.732;2022-08-19T22:28:44;8.93;;;2.72;;
36241;SDS011;22283;42.748;12.732;2022-08-19T22:33:45;7.20;;;3.40;;
36241;SDS011;22283;42.748;12.732;2022-08-19T22:38:46;10.07;;;2.60;;
36241;SDS011;22283;42.748;12.732;2022-08-19T22:43:47;8.48;;;3.10;;
36241;SDS011;22283;42.748;12.732;2022-08-19T22:48:48;13.98;;;3.00;;
36241;SDS011;22283;42.748;12.732;2022-08-19T22:53:48;6.65;;;2.83;;
36241;SDS011;22283;42.748;12.732;2022-08-19T22:58:49;17.27;;;2.88;;
36241;SDS011;22283;42.748;12.732;2022-08-19T23:03:50;9.25;;;3.10;;
36241;SDS011;22283;42.748;12.732;2022-08-19T23:08:51;6.55;;;2.80;;
36241;SDS011;22283;42.748;12.732;2022-08-19T23:13:52;8.65;;;2.88;;
36241;SDS011;22283;42.748;12.732;2022-08-19T23:18:53;6.72;;;2.83;;
36241;SDS011;22283;42.748;12.732;2022-08-19T23:23:53;8.25;;;2.88;;
36241;SDS011;22283;42.748;12.732;2022-08-19T23:28:55;7.10;;;2.58;;
36241;SDS011;22283;42.748;12.732;2022-08-19T23:34:15;8.48;;;2.88;;
36241;SDS011;22283;42.748;12.732;2022-08-19T23:44:17;8.07;;;2.85;;
36241;SDS011;22283;42.748;12.732;2022-08-19T23:49:18;4.40;;;2.92;;
36241;SDS011;22283;42.748;12.732;2022-08-19T23:54:19;8.73;;;2.92;;
36241;SDS011;22283;42.748;12.732;2022-08-19T23:59:19;11.23;;;3.00;;
